Time;durP1;ratioP1;P1;durP2;ratioP2;P2;SDS_P1;SDS_P2;PMS_P1;PMS_P2;Temp;Humidity;BMP_temperature;BMP_pressure;BME280_temperature;BME280_humidity;BME280_pressure;Samples;Min_cycle;Max_cycle;Signal;HPM_P1;HPM_P2
2022/02/19 00:00:35;;;;;;;6.10;2.63;;;;;;;;;;2072511;28;20247;-60
2022/02/19 00:01:36;;;;;;;3.78;2.50;;;;;;;;;;2072847;28;20177;-60
2022/02/19 00:02:36;;;;;;;5.90;2.97;;;;;;;;;;2072448;28;20183;-61
2022/02/19 00:03:37;;;;;;;4.63;2.50;;;;;;;;;;2073528;28;20181;-62
2022/02/19 00:04:37;;;;;;;6.13;2.60;;;;;;;;;;2071148;28;20664;-60
2022/02/19 00:05:38;;;;;;;4.20;2.17;;;;;;;;;;2057720;28;20170;-58
2022/02/19 00:06:39;;;;;;;4.18;2.72;;;;;;;;;;2069770;28;20176;-59
2022/02/19 00:07:39;;;;;;;4.00;2.70;;;;;;;;;;2074487;28;20177;-59
2022/02/19 00:08:39;;;;;;;6.10;2.50;;;;;;;;;;2073804;28;20208;-61
2022/02/19 00:09:39;;;;;;;7.27;2.77;;;;;;;;;;2074460;28;20223;-59
2022/02/19 00:10:40;;;;;;;5.53;2.23;;;;;;;;;;2074016;28;20252;-61
2022/02/19 00:11:41;;;;;;;6.75;2.55;;;;;;;;;;2074545;28;20173;-61
2022/02/19 00:12:41;;;;;;;5.55;3.00;;;;;;;;;;2071582;28;20184;-61
2022/02/19 00:13:41;;;;;;;6.10;2.90;;;;;;;;;;2073025;28;20544;-60
2022/02/19 00:14:41;;;;;;;6.33;2.90;;;;;;;;;;2071135;28;20173;-59
2022/02/19 00:15:42;;;;;;;5.43;2.90;;;;;;;;;;2066394;28;20174;-58
2022/02/19 00:16:42;;;;;;;5.07;2.00;;;;;;;;;;2068634;28;20180;-58
2022/02/19 00:17:42;;;;;;;5.60;2.33;;;;;;;;;;2073356;28;20547;-59
2022/02/19 00:18:42;;;;;;;6.90;2.27;;;;;;;;;;2068197;28;20197;-59
2022/02/19 00:19:43;;;;;;;6.33;2.77;;;;;;;;;;2065193;28;20658;-59
2022/02/19 00:20:43;;;;;;;6.18;3.25;;;;;;;;;;2067250;28;20185;-61
2022/02/19 00:21:46;;;;;;;5.80;2.77;;;;;;;;;;2067665;28;20642;-59
2022/02/19 00:22:46;;;;;;;7.70;2.50;;;;;;;;;;2070998;28;20166;-60
2022/02/19 00:23:46;;;;;;;9.05;2.90;;;;;;;;;;2073914;28;20180;-60
2022/02/19 00:24:47;;;;;;;7.23;2.40;;;;;;;;;;2069935;28;20253;-61
2022/02/19 00:25:47;;;;;;;6.73;4.17;;;;;;;;;;2073592;28;20264;-58
2022/02/19 00:26:47;;;;;;;11.67;3.13;;;;;;;;;;2070586;28;20174;-60
2022/02/19 00:27:48;;;;;;;5.00;2.30;;;;;;;;;;2057489;28;20190;-60
2022/02/19 00:28:48;;;;;;;4.97;2.93;;;;;;;;;;2058792;28;20238;-58
2022/02/19 00:29:48;;;;;;;5.13;2.47;;;;;;;;;;2070452;28;20224;-60
2022/02/19 00:30:50;;;;;;;6.73;2.93;;;;;;;;;;2073639;28;20186;-58
2022/02/19 00:31:50;;;;;;;8.57;2.77;;;;;;;;;;2073599;28;20177;-61
2022/02/19 00:32:50;;;;;;;11.63;3.13;;;;;;;;;;2073427;28;20168;-60
2022/02/19 00:33:55;;;;;;;5.33;2.53;;;;;;;;;;2073204;28;20181;-58
2022/02/19 00:34:56;;;;;;;7.07;2.33;;;;;;;;;;2070136;28;20198;-59
2022/02/19 00:35:56;;;;;;;3.87;2.27;;;;;;;;;;2068378;28;20311;-60
2022/02/19 00:36:56;;;;;;;5.40;2.70;;;;;;;;;;2069080;28;20228;-60
2022/02/19 00:37:57;;;;;;;9.90;3.10;;;;;;;;;;2065379;28;20324;-60
2022/02/19 00:38:57;;;;;;;6.17;2.50;;;;;;;;;;2063103;28;20194;-57
2022/02/19 00:39:59;;;;;;;4.50;2.73;;;;;;;;;;2073433;28;20173;-60
2022/02/19 00:41:00;;;;;;;8.23;2.70;;;;;;;;;;2060253;28;20209;-60
2022/02/19 00:42:02;;;;;;;7.77;2.50;;;;;;;;;;2072304;28;20708;-60
2022/02/19 00:43:04;;;;;;;11.20;4.13;;;;;;;;;;2067588;28;20682;-59
2022/02/19 00:44:06;;;;;;;6.30;2.70;;;;;;;;;;2072288;28;20169;-60
2022/02/19 00:45:06;;;;;;;10.97;3.63;;;;;;;;;;2067367;28;20201;-56
2022/02/19 00:46:07;;;;;;;6.53;3.50;;;;;;;;;;2065337;28;20733;-58
2022/02/19 00:47:07;;;;;;;10.53;3.40;;;;;;;;;;2066512;28;20209;-60
2022/02/19 00:48:08;;;;;;;7.23;3.13;;;;;;;;;;2057062;28;20263;-58
2022/02/19 00:49:08;;;;;;;5.63;2.33;;;;;;;;;;2058426;28;20178;-58
2022/02/19 00:50:09;;;;;;;6.20;2.83;;;;;;;;;;2065250;28;20815;-60
2022/02/19 00:51:10;;;;;;;6.13;2.55;;;;;;;;;;2063687;28;20174;-60
2022/02/19 00:52:11;;;;;;;6.07;2.60;;;;;;;;;;2065358;28;20244;-57
2022/02/19 00:53:13;;;;;;;9.03;3.07;;;;;;;;;;2061428;28;20666;-60
2022/02/19 00:54:13;;;;;;;4.70;1.93;;;;;;;;;;2064381;28;20260;-61
2022/02/19 00:55:14;;;;;;;8.67;2.90;;;;;;;;;;2061197;28;20178;-57
2022/02/19 00:56:14;;;;;;;7.17;2.73;;;;;;;;;;2061802;28;20173;-58
2022/02/19 00:57:15;;;;;;;6.87;2.47;;;;;;;;;;2063292;28;20646;-60
2022/02/19 00:58:15;;;;;;;5.17;2.57;;;;;;;;;;2072618;28;20695;-59
2022/02/19 00:59:16;;;;;;;8.63;2.53;;;;;;;;;;2071856;28;20165;-60
2022/02/19 01:00:19;;;;;;;4.43;2.43;;;;;;;;;;2062295;28;20178;-58
2022/02/19 01:01:31;;;;;;;4.93;2.40;;;;;;;;;;2062846;28;20170;-60
2022/02/19 01:02:34;;;;;;;6.67;2.53;;;;;;;;;;2062091;28;20651;-60
2022/02/19 01:03:41;;;;;;;7.53;3.10;;;;;;;;;;2069418;28;20154;-57
2022/02/19 01:04:41;;;;;;;5.73;2.33;;;;;;;;;;2067348;28;20178;-59
2022/02/19 01:05:42;;;;;;;6.00;2.83;;;;;;;;;;2069692;28;20178;-61
2022/02/19 01:06:44;;;;;;;6.10;3.20;;;;;;;;;;2070450;28;20270;-60
2022/02/19 01:07:44;;;;;;;7.30;3.53;;;;;;;;;;2060774;28;20393;-60
2022/02/19 01:08:44;;;;;;;7.67;3.53;;;;;;;;;;2062803;28;20193;-59
2022/02/19 01:09:45;;;;;;;5.27;2.80;;;;;;;;;;2068377;28;20593;-59
2022/02/19 01:10:45;;;;;;;7.27;2.70;;;;;;;;;;2068944;28;20185;-58
2022/02/19 01:11:46;;;;;;;6.13;2.30;;;;;;;;;;2072320;28;20265;-57
2022/02/19 01:12:46;;;;;;;8.93;2.47;;;;;;;;;;2070441;28;20256;-60
2022/02/19 01:13:47;;;;;;;11.87;3.37;;;;;;;;;;2070030;28;20177;-59
2022/02/19 01:14:48;;;;;;;7.77;2.60;;;;;;;;;;2069569;28;20229;-60
2022/02/19 01:15:49;;;;;;;8.93;3.30;;;;;;;;;;2070065;28;20649;-60
2022/02/19 01:16:49;;;;;;;5.30;3.40;;;;;;;;;;2062276;28;20301;-60
2022/02/19 01:17:49;;;;;;;8.63;2.80;;;;;;;;;;2059932;28;20639;-60
2022/02/19 01:18:49;;;;;;;7.67;2.93;;;;;;;;;;2059372;28;20250;-58
2022/02/19 01:19:50;;;;;;;7.27;2.80;;;;;;;;;;2068100;28;20162;-59
2022/02/19 01:20:50;;;;;;;9.07;3.10;;;;;;;;;;2071798;28;20169;-59
2022/02/19 01:21:50;;;;;;;8.03;3.30;;;;;;;;;;2060096;28;20209;-60
2022/02/19 01:22:50;;;;;;;10.50;2.97;;;;;;;;;;2069677;28;20173;-57
2022/02/19 01:23:51;;;;;;;6.03;3.03;;;;;;;;;;2070766;28;20201;-58
2022/02/19 01:24:51;;;;;;;3.73;2.37;;;;;;;;;;2064656;28;20166;-57
2022/02/19 01:25:51;;;;;;;5.20;2.90;;;;;;;;;;2056850;28;20257;-60
2022/02/19 01:26:52;;;;;;;8.70;3.47;;;;;;;;;;2070013;28;20707;-60
2022/02/19 01:27:52;;;;;;;5.20;2.70;;;;;;;;;;2061233;28;20180;-59
2022/02/19 01:28:53;;;;;;;6.33;3.07;;;;;;;;;;2061139;28;20197;-60
2022/02/19 01:29:58;;;;;;;6.20;3.20;;;;;;;;;;2065390;28;20166;-56
2022/02/19 01:30:58;;;;;;;10.47;2.70;;;;;;;;;;2061826;28;20174;-57
2022/02/19 01:31:58;;;;;;;4.07;2.40;;;;;;;;;;2057488;28;20174;-59
2022/02/19 01:33:00;;;;;;;5.23;2.57;;;;;;;;;;2052558;28;20170;-60
2022/02/19 01:34:01;;;;;;;8.83;2.73;;;;;;;;;;2052541;28;20258;-60
2022/02/19 01:35:04;;;;;;;6.18;3.05;;;;;;;;;;2060499;28;20174;-60
2022/02/19 01:36:04;;;;;;;12.17;2.67;;;;;;;;;;2061897;28;20704;-51
2022/02/19 01:37:05;;;;;;;6.90;2.97;;;;;;;;;;2052550;28;20266;-54
2022/02/19 01:38:09;;;;;;;6.33;2.83;;;;;;;;;;2057089;28;20215;-54
2022/02/19 01:39:09;;;;;;;4.80;3.03;;;;;;;;;;2063245;28;20185;-58
2022/02/19 01:40:10;;;;;;;6.07;3.27;;;;;;;;;;2059042;28;20714;-59
2022/02/19 01:41:14;;;;;;;3.20;2.60;;;;;;;;;;2061348;28;20773;-55
2022/02/19 01:42:15;;;;;;;6.57;2.93;;;;;;;;;;2051479;28;20187;-54
2022/02/19 01:43:16;;;;;;;7.73;2.67;;;;;;;;;;2054172;28;20571;-52
2022/02/19 01:44:16;;;;;;;4.97;3.10;;;;;;;;;;2059479;28;20176;-57
2022/02/19 01:45:17;;;;;;;6.17;2.53;;;;;;;;;;2063122;28;20264;-56
2022/02/19 01:46:18;;;;;;;6.13;2.60;;;;;;;;;;2060724;28;20161;-58
2022/02/19 01:47:19;;;;;;;2.50;1.90;;;;;;;;;;2060992;28;20169;-61
2022/02/19 01:48:20;;;;;;;9.23;3.10;;;;;;;;;;2055132;28;20185;-59
2022/02/19 01:49:22;;;;;;;7.73;3.13;;;;;;;;;;2062621;28;20222;-58
2022/02/19 01:50:22;;;;;;;10.33;4.13;;;;;;;;;;2069029;28;20275;-53
2022/02/19 01:51:24;;;;;;;12.30;3.77;;;;;;;;;;2063536;28;20255;-56
2022/02/19 01:52:24;;;;;;;10.73;3.30;;;;;;;;;;2060203;28;20236;-55
2022/02/19 01:53:25;;;;;;;9.47;3.70;;;;;;;;;;2064182;28;20169;-60
2022/02/19 01:54:30;;;;;;;5.80;3.17;;;;;;;;;;2056914;28;20174;-55
2022/02/19 01:55:42;;;;;;;7.20;3.13;;;;;;;;;;2065144;28;20168;-58
2022/02/19 01:57:02;;;;;;;8.43;3.03;;;;;;;;;;2066591;28;20255;-61
2022/02/19 01:58:17;;;;;;;8.20;3.07;;;;;;;;;;2069860;28;20219;-60
2022/02/19 01:59:36;;;;;;;4.30;2.90;;;;;;;;;;2067363;28;20165;-60
2022/02/19 02:00:46;;;;;;;6.17;3.17;;;;;;;;;;2068112;28;20180;-57
2022/02/19 02:02:13;;;;;;;10.97;3.37;;;;;;;;;;2053095;28;20178;-58
2022/02/19 02:03:31;;;;;;;14.83;2.77;;;;;;;;;;2072307;28;20325;-61
2022/02/19 02:04:38;;;;;;;7.03;2.70;;;;;;;;;;2059020;28;20277;-60
2022/02/19 02:05:38;;;;;;;4.53;2.60;;;;;;;;;;2063160;28;20169;-60
2022/02/19 02:06:42;;;;;;;10.00;3.20;;;;;;;;;;2072811;28;20667;-61
2022/02/19 02:07:42;;;;;;;10.57;3.20;;;;;;;;;;2073901;28;20661;-60
2022/02/19 02:08:42;;;;;;;5.03;2.53;;;;;;;;;;2072520;28;20192;-58
2022/02/19 02:09:43;;;;;;;5.63;3.43;;;;;;;;;;2073083;28;20707;-61
2022/02/19 02:10:44;;;;;;;6.70;2.93;;;;;;;;;;2070924;28;20174;-61
2022/02/19 02:11:53;;;;;;;8.33;2.73;;;;;;;;;;2072893;28;20288;-58
2022/02/19 02:12:53;;;;;;;5.40;2.87;;;;;;;;;;2064516;28;20218;-59
2022/02/19 02:13:53;;;;;;;7.93;2.63;;;;;;;;;;2064450;28;20225;-60
2022/02/19 02:14:53;;;;;;;4.83;2.33;;;;;;;;;;2060152;28;20269;-57
2022/02/19 02:15:58;;;;;;;10.57;3.50;;;;;;;;;;2057040;28;20181;-59
2022/02/19 02:17:17;;;;;;;5.40;2.70;;;;;;;;;;2072422;28;20184;-60
2022/02/19 02:18:17;;;;;;;10.67;2.90;;;;;;;;;;2072388;28;20188;-61
2022/02/19 02:19:17;;;;;;;9.00;2.73;;;;;;;;;;2071321;28;20215;-60
2022/02/19 02:20:33;;;;;;;5.33;2.30;;;;;;;;;;2066049;28;20161;-59
2022/02/19 02:21:35;;;;;;;8.03;3.40;;;;;;;;;;2064585;28;20577;-60
2022/02/19 02:22:35;;;;;;;4.97;2.90;;;;;;;;;;2058322;28;20186;-59
2022/02/19 02:23:35;;;;;;;7.77;3.13;;;;;;;;;;2070465;28;20181;-60
2022/02/19 02:24:36;;;;;;;7.60;3.10;;;;;;;;;;2064065;28;20200;-60
2022/02/19 02:25:37;;;;;;;6.27;3.57;;;;;;;;;;2072194;28;20223;-61
2022/02/19 02:26:39;;;;;;;6.40;2.30;;;;;;;;;;2071203;28;20577;-60
2022/02/19 02:27:40;;;;;;;5.80;2.20;;;;;;;;;;2063981;28;20674;-60
2022/02/19 02:28:40;;;;;;;4.50;2.50;;;;;;;;;;2058535;28;20198;-59
2022/02/19 02:29:43;;;;;;;4.70;2.43;;;;;;;;;;2064289;28;20185;-61
2022/02/19 02:30:45;;;;;;;5.10;2.70;;;;;;;;;;2054043;28;20604;-60
2022/02/19 02:31:49;;;;;;;6.03;3.17;;;;;;;;;;2069412;28;20894;-60
2022/02/19 02:32:49;;;;;;;9.40;3.17;;;;;;;;;;2071150;28;20180;-59
2022/02/19 02:33:51;;;;;;;7.57;2.30;;;;;;;;;;2073132;28;20235;-59
2022/02/19 02:34:54;;;;;;;6.43;2.77;;;;;;;;;;2069960;28;20259;-55
2022/02/19 02:35:55;;;;;;;5.40;2.40;;;;;;;;;;2067150;28;20273;-58
2022/02/19 02:37:08;;;;;;;2.70;2.50;;;;;;;;;;2068011;28;20264;-59
2022/02/19 02:38:08;;;;;;;6.97;2.57;;;;;;;;;;2058922;28;20197;-59
2022/02/19 02:39:08;;;;;;;3.53;2.43;;;;;;;;;;2063406;28;20169;-59
2022/02/19 02:40:12;;;;;;;4.00;2.57;;;;;;;;;;2064300;28;20197;-57
2022/02/19 02:41:13;;;;;;;6.03;2.30;;;;;;;;;;2067447;28;20162;-59
2022/02/19 02:42:16;;;;;;;9.50;3.57;;;;;;;;;;2067916;28;20293;-58
2022/02/19 02:43:17;;;;;;;6.80;2.37;;;;;;;;;;2072205;28;20161;-58
2022/02/19 02:44:18;;;;;;;4.23;2.30;;;;;;;;;;2064017;28;20340;-60
2022/02/19 02:45:19;;;;;;;6.00;2.37;;;;;;;;;;2072504;28;20199;-60
2022/02/19 02:46:22;;;;;;;8.87;3.17;;;;;;;;;;2072962;28;20172;-60
2022/02/19 02:47:24;;;;;;;5.10;2.40;;;;;;;;;;2065721;28;20181;-63
2022/02/19 02:48:25;;;;;;;7.80;2.03;;;;;;;;;;2063033;28;20193;-61
2022/02/19 02:49:26;;;;;;;4.53;2.87;;;;;;;;;;2055735;28;20590;-59
2022/02/19 02:50:26;;;;;;;7.70;3.20;;;;;;;;;;2057351;28;20174;-57
2022/02/19 02:51:28;;;;;;;7.90;3.00;;;;;;;;;;2070428;28;20256;-61
2022/02/19 02:52:29;;;;;;;7.83;3.70;;;;;;;;;;2061982;28;20196;-60
2022/02/19 02:53:29;;;;;;;6.73;3.00;;;;;;;;;;2061668;28;20577;-61
2022/02/19 02:54:30;;;;;;;11.03;3.50;;;;;;;;;;2062978;28;20196;-61
2022/02/19 02:55:30;;;;;;;12.70;3.40;;;;;;;;;;2064496;28;20193;-60
2022/02/19 02:56:30;;;;;;;5.67;2.73;;;;;;;;;;2056825;28;20225;-60
2022/02/19 02:57:31;;;;;;;10.63;3.67;;;;;;;;;;2063124;28;20177;-60
2022/02/19 02:58:31;;;;;;;4.37;2.57;;;;;;;;;;2069009;28;20204;-60
2022/02/19 02:59:35;;;;;;;6.03;2.47;;;;;;;;;;2064947;28;20177;-60
2022/02/19 03:00:35;;;;;;;10.07;3.03;;;;;;;;;;2071970;28;20212;-60
2022/02/19 03:01:35;;;;;;;7.07;2.80;;;;;;;;;;2059121;28;20208;-60
2022/02/19 03:02:37;;;;;;;8.13;2.67;;;;;;;;;;2062519;28;20229;-59
2022/02/19 03:03:40;;;;;;;8.83;3.07;;;;;;;;;;2063603;28;20220;-60
2022/02/19 03:04:41;;;;;;;5.13;2.50;;;;;;;;;;2063762;28;20178;-60
2022/02/19 03:05:41;;;;;;;6.70;2.30;;;;;;;;;;2072473;28;20176;-60
2022/02/19 03:06:43;;;;;;;6.03;2.70;;;;;;;;;;2067767;28;20164;-60
2022/02/19 03:07:43;;;;;;;7.53;2.73;;;;;;;;;;2071800;28;20560;-58
2022/02/19 03:08:45;;;;;;;6.63;3.43;;;;;;;;;;2063800;28;20204;-59
2022/02/19 03:09:47;;;;;;;5.60;2.73;;;;;;;;;;2060301;28;20177;-59
2022/02/19 03:10:47;;;;;;;6.90;2.37;;;;;;;;;;2068473;28;20174;-60
2022/02/19 03:11:48;;;;;;;8.80;3.10;;;;;;;;;;2064140;28;20202;-60
2022/02/19 03:12:48;;;;;;;6.47;3.40;;;;;;;;;;2060426;28;20185;-59
2022/02/19 03:13:49;;;;;;;9.60;3.00;;;;;;;;;;2061660;28;20212;-58
2022/02/19 03:14:50;;;;;;;3.53;2.60;;;;;;;;;;2056842;28;20637;-58
2022/02/19 03:15:50;;;;;;;7.23;2.73;;;;;;;;;;2056366;28;20178;-58
2022/02/19 03:16:51;;;;;;;9.50;3.27;;;;;;;;;;2056295;28;20235;-59
2022/02/19 03:17:51;;;;;;;8.20;3.00;;;;;;;;;;2056041;28;20206;-59
2022/02/19 03:18:52;;;;;;;11.10;3.60;;;;;;;;;;2061481;28;20648;-59
2022/02/19 03:19:52;;;;;;;9.23;3.00;;;;;;;;;;2064276;28;20174;-59
2022/02/19 03:20:52;;;;;;;8.27;3.10;;;;;;;;;;2060603;28;20177;-59
2022/02/19 03:21:53;;;;;;;5.73;2.33;;;;;;;;;;2064378;28;20208;-59
2022/02/19 03:22:53;;;;;;;4.63;2.87;;;;;;;;;;2060243;28;20286;-58
2022/02/19 03:23:55;;;;;;;7.77;2.63;;;;;;;;;;2063814;28;20256;-57
2022/02/19 03:24:55;;;;;;;7.70;4.03;;;;;;;;;;2060742;28;20174;-59
2022/02/19 03:25:55;;;;;;;7.00;3.03;;;;;;;;;;2067987;28;20177;-59
2022/02/19 03:26:58;;;;;;;8.60;2.90;;;;;;;;;;2064292;28;20182;-59
2022/02/19 03:27:59;;;;;;;4.20;3.07;;;;;;;;;;2058647;28;20253;-60
2022/02/19 03:29:04;;;;;;;6.93;2.93;;;;;;;;;;2059169;28;20214;-59
2022/02/19 03:30:11;;;;;;;5.17;2.67;;;;;;;;;;2059021;28;20182;-59
2022/02/19 03:31:12;;;;;;;12.57;3.37;;;;;;;;;;2059789;28;20221;-60
2022/02/19 03:32:22;;;;;;;10.87;3.93;;;;;;;;;;2064965;28;20173;-60
2022/02/19 03:33:23;;;;;;;9.97;3.07;;;;;;;;;;2056564;28;20173;-60
2022/02/19 03:34:23;;;;;;;11.63;3.07;;;;;;;;;;2055869;28;20220;-60
2022/02/19 03:35:24;;;;;;;12.70;3.20;;;;;;;;;;2060865;28;20170;-60
2022/02/19 03:36:24;;;;;;;13.63;3.57;;;;;;;;;;2072839;28;20185;-61
2022/02/19 03:37:26;;;;;;;7.40;3.43;;;;;;;;;;2065710;28;20177;-60
2022/02/19 03:38:33;;;;;;;11.83;3.53;;;;;;;;;;2067034;28;20216;-59
2022/02/19 03:39:38;;;;;;;10.97;3.30;;;;;;;;;;2067366;28;20169;-57
2022/02/19 03:40:38;;;;;;;6.37;2.97;;;;;;;;;;2073342;28;20690;-59
2022/02/19 03:41:39;;;;;;;10.67;3.60;;;;;;;;;;2072583;28;20173;-58
2022/02/19 03:42:42;;;;;;;8.10;3.07;;;;;;;;;;2065803;28;20216;-57
2022/02/19 03:43:42;;;;;;;9.90;2.37;;;;;;;;;;2059628;28;20201;-58
2022/02/19 03:44:43;;;;;;;3.57;2.33;;;;;;;;;;2063356;28;20634;-57
2022/02/19 03:45:50;;;;;;;7.93;3.23;;;;;;;;;;2075431;28;20168;-58
2022/02/19 03:47:09;;;;;;;9.43;2.87;;;;;;;;;;2070213;28;20154;-54
2022/02/19 03:48:21;;;;;;;6.80;2.37;;;;;;;;;;2066702;28;20269;-56
2022/02/19 03:49:22;;;;;;;7.57;2.60;;;;;;;;;;2060774;28;20186;-59
2022/02/19 03:50:23;;;;;;;4.93;2.87;;;;;;;;;;2066298;28;20182;-59
2022/02/19 03:51:23;;;;;;;6.43;3.30;;;;;;;;;;2074638;28;20187;-58
2022/02/19 03:52:24;;;;;;;5.13;2.77;;;;;;;;;;2066402;28;20189;-59
2022/02/19 03:53:25;;;;;;;11.40;3.13;;;;;;;;;;2066447;28;20173;-59
2022/02/19 03:54:25;;;;;;;4.83;2.77;;;;;;;;;;2073563;28;20684;-59
2022/02/19 03:55:26;;;;;;;3.70;2.63;;;;;;;;;;2067304;28;20236;-60
2022/02/19 03:56:30;;;;;;;8.10;2.90;;;;;;;;;;2062792;28;20166;-56
2022/02/19 03:57:36;;;;;;;6.83;3.10;;;;;;;;;;2058368;28;20193;-60
2022/02/19 03:58:36;;;;;;;6.33;3.03;;;;;;;;;;2063579;28;20204;-59
2022/02/19 03:59:39;;;;;;;6.17;2.67;;;;;;;;;;2065732;28;20173;-56
2022/02/19 04:00:40;;;;;;;6.70;3.47;;;;;;;;;;2057571;28;20174;-57
2022/02/19 04:01:42;;;;;;;6.70;3.10;;;;;;;;;;2065914;28;20264;-58
2022/02/19 04:02:48;;;;;;;6.17;3.03;;;;;;;;;;2070111;28;20228;-60
2022/02/19 04:03:55;;;;;;;13.63;3.80;;;;;;;;;;2058491;28;20674;-60
2022/02/19 04:04:55;;;;;;;11.37;2.97;;;;;;;;;;2068088;28;20204;-60
2022/02/19 04:05:57;;;;;;;5.50;2.73;;;;;;;;;;2066160;28;20181;-60
2022/02/19 04:06:58;;;;;;;7.27;2.50;;;;;;;;;;2067859;28;20187;-57
2022/02/19 04:08:18;;;;;;;2.77;2.20;;;;;;;;;;2065887;28;20273;-58
2022/02/19 04:09:21;;;;;;;7.33;3.20;;;;;;;;;;2065762;28;20170;-59
2022/02/19 04:10:22;;;;;;;7.63;3.60;;;;;;;;;;2073930;28;20184;-54
2022/02/19 04:11:23;;;;;;;8.20;3.50;;;;;;;;;;2066144;28;20199;-59
2022/02/19 04:12:25;;;;;;;10.10;4.20;;;;;;;;;;2060325;28;20789;-60
2022/02/19 04:13:28;;;;;;;8.13;2.67;;;;;;;;;;2066386;28;20178;-61
2022/02/19 04:14:45;;;;;;;5.43;2.90;;;;;;;;;;2065722;28;20173;-60
2022/02/19 04:15:45;;;;;;;5.37;3.30;;;;;;;;;;2071331;28;20208;-60
2022/02/19 04:16:47;;;;;;;6.83;2.23;;;;;;;;;;2073121;28;20275;-59
2022/02/19 04:17:47;;;;;;;6.83;2.67;;;;;;;;;;2064200;28;20203;-57
2022/02/19 04:18:50;;;;;;;8.23;3.03;;;;;;;;;;2059163;28;20252;-58
2022/02/19 04:19:53;;;;;;;6.53;3.00;;;;;;;;;;2058096;28;20178;-58
2022/02/19 04:20:53;;;;;;;11.37;3.30;;;;;;;;;;2061271;28;20186;-59
2022/02/19 04:21:54;;;;;;;9.60;3.50;;;;;;;;;;2057257;28;20659;-60
2022/02/19 04:22:56;;;;;;;7.90;2.97;;;;;;;;;;2057237;28;20174;-60
2022/02/19 04:23:58;;;;;;;5.27;2.87;;;;;;;;;;2057008;28;20175;-58
2022/02/19 04:25:00;;;;;;;6.87;2.57;;;;;;;;;;2062292;28;20278;-60
2022/02/19 04:26:04;;;;;;;5.47;2.87;;;;;;;;;;2069689;28;20194;-60
2022/02/19 04:27:14;;;;;;;10.57;3.37;;;;;;;;;;2064998;28;20251;-59
2022/02/19 04:28:19;;;;;;;8.00;3.60;;;;;;;;;;2057766;28;20178;-58
2022/02/19 04:29:20;;;;;;;3.33;2.30;;;;;;;;;;2074777;23;20226;-54
2022/02/19 04:30:24;;;;;;;7.97;2.90;;;;;;;;;;2056939;28;20689;-52
2022/02/19 04:31:30;;;;;;;8.40;2.17;;;;;;;;;;2049583;29;20182;-56
2022/02/19 04:32:38;;;;;;;10.17;3.43;;;;;;;;;;2044669;28;20164;-53
2022/02/19 04:33:39;;;;;;;7.33;2.40;;;;;;;;;;2049817;28;20589;-55
2022/02/19 04:34:40;;;;;;;6.33;2.63;;;;;;;;;;2057099;28;20202;-55
2022/02/19 04:35:40;;;;;;;10.93;3.23;;;;;;;;;;2058298;28;20572;-56
2022/02/19 04:36:40;;;;;;;9.23;3.17;;;;;;;;;;2057533;28;20678;-54
2022/02/19 04:37:42;;;;;;;2.87;2.43;;;;;;;;;;2057563;28;20178;-55
2022/02/19 04:38:43;;;;;;;8.77;3.33;;;;;;;;;;2057364;28;20214;-52
2022/02/19 04:39:43;;;;;;;10.60;2.93;;;;;;;;;;2049238;29;20214;-56
2022/02/19 04:40:52;;;;;;;8.57;3.30;;;;;;;;;;2053234;28;20654;-54
2022/02/19 04:41:53;;;;;;;9.40;3.30;;;;;;;;;;2041582;29;20280;-56
2022/02/19 04:42:56;;;;;;;7.40;2.50;;;;;;;;;;2055667;28;20177;-55
2022/02/19 04:44:02;;;;;;;5.13;3.07;;;;;;;;;;2049760;28;20613;-53
2022/02/19 04:45:05;;;;;;;8.37;3.07;;;;;;;;;;2049430;28;20561;-55
2022/02/19 04:46:11;;;;;;;11.60;2.43;;;;;;;;;;2049830;28;20175;-55
2022/02/19 04:47:12;;;;;;;7.07;2.97;;;;;;;;;;2049530;28;20675;-54
2022/02/19 04:48:14;;;;;;;4.67;2.63;;;;;;;;;;2049415;28;20179;-56
2022/02/19 04:49:14;;;;;;;6.17;3.40;;;;;;;;;;2042237;29;20199;-55
2022/02/19 04:50:15;;;;;;;5.93;3.20;;;;;;;;;;2056958;28;20175;-56
2022/02/19 04:51:15;;;;;;;5.67;2.97;;;;;;;;;;2042361;28;20187;-53
2022/02/19 04:52:15;;;;;;;6.10;2.43;;;;;;;;;;2049245;29;20270;-55
2022/02/19 04:53:16;;;;;;;5.80;2.73;;;;;;;;;;2049550;29;20182;-53
2022/02/19 04:54:16;;;;;;;9.03;3.53;;;;;;;;;;2048639;29;20178;-51
2022/02/19 04:55:18;;;;;;;7.27;3.03;;;;;;;;;;2049658;28;20198;-55
2022/02/19 04:56:18;;;;;;;5.43;2.07;;;;;;;;;;2049482;29;20553;-55
2022/02/19 04:57:21;;;;;;;5.87;2.37;;;;;;;;;;2049712;28;20187;-51
2022/02/19 04:58:22;;;;;;;9.43;2.83;;;;;;;;;;2049307;29;20226;-54
2022/02/19 04:59:22;;;;;;;10.10;2.80;;;;;;;;;;2049129;29;20777;-53
2022/02/19 05:00:22;;;;;;;8.50;2.70;;;;;;;;;;2048950;29;20182;-53
2022/02/19 05:01:41;;;;;;;6.97;2.93;;;;;;;;;;2049911;29;20151;-55
2022/02/19 05:02:46;;;;;;;5.03;2.87;;;;;;;;;;2052750;28;20182;-53
2022/02/19 05:03:46;;;;;;;5.40;2.23;;;;;;;;;;2049619;28;20207;-53
2022/02/19 05:05:13;;;;;;;5.77;2.60;;;;;;;;;;2048456;28;20271;-53
2022/02/19 05:06:14;;;;;;;4.63;2.93;;;;;;;;;;2049380;28;20565;-54
2022/02/19 05:07:22;;;;;;;9.37;3.33;;;;;;;;;;2057409;28;20178;-55
2022/02/19 05:08:23;;;;;;;5.03;2.40;;;;;;;;;;2048628;29;20186;-55
2022/02/19 05:09:24;;;;;;;6.00;2.90;;;;;;;;;;2041641;29;20204;-51
2022/02/19 05:10:42;;;;;;;4.93;2.33;;;;;;;;;;2047351;29;20678;-53
2022/02/19 05:11:42;;;;;;;5.20;2.90;;;;;;;;;;2044019;29;20177;-52
2022/02/19 05:12:45;;;;;;;13.87;2.67;;;;;;;;;;2049529;28;20195;-52
2022/02/19 05:13:48;;;;;;;7.73;2.67;;;;;;;;;;2049192;29;20210;-54
2022/02/19 05:14:48;;;;;;;7.97;2.40;;;;;;;;;;2056719;28;20563;-53
2022/02/19 05:15:58;;;;;;;6.43;2.03;;;;;;;;;;2058813;28;20178;-55
2022/02/19 05:17:05;;;;;;;7.83;3.37;;;;;;;;;;2057026;28;20650;-53
2022/02/19 05:18:14;;;;;;;2.47;1.90;;;;;;;;;;2042973;29;20192;-52
2022/02/19 05:19:15;;;;;;;5.90;2.90;;;;;;;;;;2048655;28;20194;-53
2022/02/19 05:20:22;;;;;;;3.63;2.27;;;;;;;;;;2042114;29;20634;-54
2022/02/19 05:21:23;;;;;;;6.23;2.83;;;;;;;;;;2042425;29;20187;-52
2022/02/19 05:22:27;;;;;;;7.67;2.57;;;;;;;;;;2042432;28;20168;-52
2022/02/19 05:23:31;;;;;;;8.03;3.20;;;;;;;;;;2041814;29;20648;-54
2022/02/19 05:24:31;;;;;;;2.43;1.97;;;;;;;;;;2049576;28;20246;-54
2022/02/19 05:25:41;;;;;;;8.77;2.53;;;;;;;;;;2049930;28;20175;-54
2022/02/19 05:26:44;;;;;;;7.10;3.13;;;;;;;;;;2040355;29;20195;-55
2022/02/19 05:27:48;;;;;;;4.43;2.43;;;;;;;;;;2042739;28;20179;-54
2022/02/19 05:28:50;;;;;;;7.43;2.87;;;;;;;;;;2049104;28;20187;-53
2022/02/19 05:29:50;;;;;;;4.57;2.77;;;;;;;;;;2057328;28;20550;-53
2022/02/19 05:30:52;;;;;;;6.13;3.23;;;;;;;;;;2053180;28;20179;-55
2022/02/19 05:32:10;;;;;;;6.27;2.77;;;;;;;;;;2043985;29;20156;-53
2022/02/19 05:33:26;;;;;;;6.27;2.90;;;;;;;;;;2045991;29;20171;-56
2022/02/19 05:34:27;;;;;;;4.67;2.77;;;;;;;;;;2041686;29;20555;-55
2022/02/19 05:35:31;;;;;;;4.20;2.60;;;;;;;;;;2049779;28;20309;-56
2022/02/19 05:36:31;;;;;;;11.30;3.90;;;;;;;;;;2041575;29;20184;-52
2022/02/19 05:37:32;;;;;;;5.93;3.10;;;;;;;;;;2033589;29;20264;-52
2022/02/19 05:38:33;;;;;;;5.03;2.73;;;;;;;;;;2042605;28;20782;-54
2022/02/19 05:39:33;;;;;;;5.53;2.43;;;;;;;;;;2049170;29;20163;-52
2022/02/19 05:40:36;;;;;;;7.37;2.90;;;;;;;;;;2047087;29;20183;-52
2022/02/19 05:41:41;;;;;;;8.10;2.70;;;;;;;;;;2051144;28;20202;-54
2022/02/19 05:42:46;;;;;;;7.20;2.63;;;;;;;;;;2049866;28;20186;-52
2022/02/19 05:43:51;;;;;;;6.13;2.67;;;;;;;;;;2048838;28;20182;-53
2022/02/19 05:44:53;;;;;;;5.83;2.70;;;;;;;;;;2045553;28;20175;-52
2022/02/19 05:45:53;;;;;;;9.53;3.03;;;;;;;;;;2046395;28;20168;-53
2022/02/19 05:46:54;;;;;;;4.73;2.93;;;;;;;;;;2052970;28;20185;-53
2022/02/19 05:47:58;;;;;;;6.23;3.00;;;;;;;;;;2049681;28;20337;-53
2022/02/19 05:49:19;;;;;;;6.13;3.40;;;;;;;;;;2055426;28;20284;-53
2022/02/19 05:50:44;;;;;;;3.17;2.20;;;;;;;;;;2050242;28;20254;-54
2022/02/19 05:51:54;;;;;;;4.90;2.93;;;;;;;;;;2049849;28;20186;-52
2022/02/19 05:53:04;;;;;;;10.70;3.37;;;;;;;;;;2057344;28;20545;-55
2022/02/19 05:54:09;;;;;;;5.47;2.63;;;;;;;;;;2056607;28;20709;-52
2022/02/19 05:55:16;;;;;;;4.83;2.60;;;;;;;;;;2057332;28;20158;-54
2022/02/19 05:56:17;;;;;;;5.00;2.57;;;;;;;;;;2057190;28;20193;-52
2022/02/19 05:57:17;;;;;;;7.63;2.90;;;;;;;;;;2049868;29;20231;-54
2022/02/19 05:58:17;;;;;;;6.07;2.20;;;;;;;;;;2049435;29;20194;-53
2022/02/19 05:59:25;;;;;;;14.57;3.70;;;;;;;;;;2050803;28;20195;-54
2022/02/19 06:00:26;;;;;;;7.00;2.80;;;;;;;;;;2049247;28;20171;-52
2022/02/19 06:01:26;;;;;;;7.47;3.63;;;;;;;;;;2057496;28;20254;-54
2022/02/19 06:02:33;;;;;;;8.30;3.60;;;;;;;;;;2056988;28;20179;-54
2022/02/19 06:03:33;;;;;;;10.23;3.63;;;;;;;;;;2048737;29;20187;-55
2022/02/19 06:04:33;;;;;;;8.37;3.20;;;;;;;;;;2055712;28;20189;-52
2022/02/19 06:05:34;;;;;;;9.07;3.27;;;;;;;;;;2056990;28;20174;-55
2022/02/19 06:06:35;;;;;;;4.43;2.57;;;;;;;;;;2047118;29;20211;-55
2022/02/19 06:07:35;;;;;;;7.30;3.13;;;;;;;;;;2044611;29;20189;-53
2022/02/19 06:08:37;;;;;;;8.03;3.47;;;;;;;;;;2045742;28;20179;-54
2022/02/19 06:09:37;;;;;;;5.07;3.20;;;;;;;;;;2055279;28;20265;-54
2022/02/19 06:10:38;;;;;;;8.70;3.20;;;;;;;;;;2054494;28;20180;-54
2022/02/19 06:11:42;;;;;;;8.27;3.70;;;;;;;;;;2056615;28;20197;-53
2022/02/19 06:13:12;;;;;;;7.97;2.67;;;;;;;;;;2050334;28;20202;-54
2022/02/19 06:14:19;;;;;;;8.03;3.50;;;;;;;;;;2052586;28;20225;-52
2022/02/19 06:15:26;;;;;;;3.30;2.53;;;;;;;;;;2048191;29;20617;-52